Time;durP1;ratioP1;P1;durP2;ratioP2;P2;SDS_P1;SDS_P2;PMS_P1;PMS_P2;Temp;Humidity;BMP_temperature;BMP_pressure;BME280_temperature;BME280_humidity;BME280_pressure;Samples;Min_cycle;Max_cycle;Signal;HPM_P1;HPM_P2
2023/05/19 00:01:18;;;;;;;13.85;9.78;;;;;;;20.72;41.67;100699.70;1635784;87;21452;-63
2023/05/19 00:03:53;;;;;;;14.47;9.83;;;;;;;20.72;41.81;100708.89;1684798;85;21055;-64
2023/05/19 00:06:26;;;;;;;14.65;9.53;;;;;;;20.71;41.90;100707.77;1641550;86;21020;-64
2023/05/19 00:09:02;;;;;;;15.83;9.43;;;;;;;20.70;41.91;100715.82;1656213;87;21444;-65
2023/05/19 00:11:37;;;;;;;14.93;10.20;;;;;;;20.69;42.00;100721.09;1656321;87;21064;-63
2023/05/19 00:14:08;;;;;;;15.25;9.55;;;;;;;20.66;42.36;100720.22;1628535;88;21048;-65
2023/05/19 00:16:39;;;;;;;15.28;9.78;;;;;;;20.66;42.49;100711.31;1656355;87;21056;-64
2023/05/19 00:19:10;;;;;;;14.28;8.95;;;;;;;20.65;42.71;100712.42;1656171;87;21032;-64
2023/05/19 00:21:40;;;;;;;14.35;9.50;;;;;;;20.64;42.71;100726.05;1656698;87;21064;-64
2023/05/19 00:24:10;;;;;;;14.70;9.08;;;;;;;20.61;42.77;100727.95;1646265;86;21040;-63
2023/05/19 00:26:40;;;;;;;16.30;10.15;;;;;;;20.58;42.90;100725.13;1645183;87;21158;-64
2023/05/19 00:29:09;;;;;;;14.43;9.20;;;;;;;20.59;43.04;100734.33;1645190;87;21072;-64
2023/05/19 00:31:38;;;;;;;12.95;8.78;;;;;;;20.59;43.14;100735.72;1645105;87;21004;-63
2023/05/19 00:34:10;;;;;;;12.93;8.78;;;;;;;20.56;43.24;100735.68;1625085;87;21061;-65
2023/05/19 00:36:39;;;;;;;13.60;8.43;;;;;;;20.55;43.44;100734.55;1645174;87;21440;-63
2023/05/19 00:39:09;;;;;;;14.33;8.55;;;;;;;20.53;43.53;100726.45;1610678;87;21063;-64
2023/05/19 00:41:39;;;;;;;14.03;8.43;;;;;;;20.51;43.69;100732.81;1680541;85;21028;-64
2023/05/19 00:44:08;;;;;;;11.75;8.45;;;;;;;20.50;43.84;100745.05;1680413;85;20996;-64
2023/05/19 00:46:38;;;;;;;12.33;8.48;;;;;;;20.47;43.86;100732.19;1645197;87;21499;-66
2023/05/19 00:49:08;;;;;;;10.80;8.28;;;;;;;20.45;43.92;100740.80;1624724;87;21001;-64
2023/05/19 00:51:38;;;;;;;13.28;8.03;;;;;;;20.41;44.17;100742.41;1624905;87;21050;-65
2023/05/19 00:54:07;;;;;;;13.50;8.15;;;;;;;20.39;44.45;100739.03;1645173;87;21041;-64
2023/05/19 00:56:39;;;;;;;13.00;8.05;;;;;;;20.37;44.53;100739.80;1645341;87;21037;-64
2023/05/19 00:59:08;;;;;;;12.40;8.03;;;;;;;20.36;44.57;100737.27;1645136;86;20989;-64
2023/05/19 01:01:39;;;;;;;11.48;7.85;;;;;;;20.34;44.97;100736.14;1645557;87;21049;-64
2023/05/19 01:04:10;;;;;;;12.23;7.53;;;;;;;20.31;45.31;100737.20;1645304;87;21029;-64
2023/05/19 01:06:41;;;;;;;11.73;7.60;;;;;;;20.30;45.41;100753.05;1625170;87;21064;-64
2023/05/19 01:09:10;;;;;;;11.00;7.40;;;;;;;20.27;45.51;100753.55;1645484;87;21061;-66
2023/05/19 01:11:40;;;;;;;15.25;7.95;;;;;;;20.24;45.49;100757.69;1645307;87;20993;-64
2023/05/19 01:14:10;;;;;;;14.00;8.65;;;;;;;20.22;45.53;100751.53;1645291;87;21464;-64
2023/05/19 01:17:06;;;;;;;13.88;7.62;;;;;;;20.22;45.70;100749.30;1645585;86;21021;-64
2023/05/19 01:19:56;;;;;;;12.82;8.20;;;;;;;20.20;45.69;100757.89;1645228;86;21016;-63
2023/05/19 01:22:37;;;;;;;11.60;7.92;;;;;;;20.18;45.95;100764.81;1645165;87;21148;-63
2023/05/19 01:25:28;;;;;;;12.28;8.43;;;;;;;20.16;45.97;100771.17;1645281;87;21021;-64
2023/05/19 01:28:27;;;;;;;12.98;8.30;;;;;;;20.12;46.20;100773.59;1626353;86;21097;-63
2023/05/19 01:30:57;;;;;;;11.08;7.22;;;;;;;20.12;46.40;100768.02;1645148;86;20997;-65
2023/05/19 01:33:28;;;;;;;11.40;6.87;;;;;;;20.10;46.41;100765.20;1646379;87;21073;-65
2023/05/19 01:35:57;;;;;;;13.05;6.70;;;;;;;20.08;46.56;100771.56;1624958;87;21430;-64
2023/05/19 01:38:28;;;;;;;9.28;6.55;;;;;;;20.06;46.86;100769.58;1645291;87;21053;-64
2023/05/19 01:40:58;;;;;;;8.80;6.62;;;;;;;20.03;47.25;100770.08;1644944;87;21445;-63
2023/05/19 01:43:29;;;;;;;13.55;6.00;;;;;;;19.99;47.55;100766.95;1623130;87;21077;-65
2023/05/19 01:45:58;;;;;;;12.58;6.37;;;;;;;19.96;47.64;100764.67;1645321;86;21045;-62
2023/05/19 01:48:27;;;;;;;9.58;6.37;;;;;;;19.95;47.82;100772.17;1603486;87;21413;-64
2023/05/19 01:50:59;;;;;;;9.95;6.30;;;;;;;19.95;47.98;100776.89;1645330;87;21056;-63
2023/05/19 01:53:29;;;;;;;10.43;5.83;;;;;;;19.91;48.11;100775.16;1645340;87;21084;-63
2023/05/19 01:55:59;;;;;;;11.80;5.87;;;;;;;19.89;48.44;100778.74;1645513;87;21072;-64
2023/05/19 01:58:46;;;;;;;11.22;5.85;;;;;;;19.87;48.97;100766.18;1645269;87;21076;-63
2023/05/19 02:01:38;;;;;;;17.50;6.00;;;;;;;19.86;49.17;100772.29;1645135;87;20977;-63
2023/05/19 02:04:32;;;;;;;7.97;5.70;;;;;;;19.89;49.70;100769.55;1645397;87;21037;-64
2023/05/19 02:07:08;;;;;;;8.55;5.60;;;;;;;19.85;50.64;100762.26;1645149;87;21096;-63
2023/05/19 02:09:52;;;;;;;11.70;6.00;;;;;;;19.80;50.79;100767.72;1624867;87;21049;-65
2023/05/19 02:12:34;;;;;;;11.03;5.28;;;;;;;19.76;51.22;100772.09;1645087;87;21052;-64
2023/05/19 02:15:10;;;;;;;9.20;5.33;;;;;;;19.75;51.33;100779.30;1645135;87;21045;-64
2023/05/19 02:17:41;;;;;;;10.07;5.67;;;;;;;19.74;51.35;100781.78;1625399;87;21072;-64
2023/05/19 02:20:11;;;;;;;9.83;5.08;;;;;;;19.71;51.76;100780.89;1623338;87;21682;-62
2023/05/19 02:22:40;;;;;;;11.35;5.55;;;;;;;19.71;51.36;100784.52;1645004;87;21536;-64
2023/05/19 02:25:10;;;;;;;12.28;5.25;;;;;;;19.70;51.99;100781.98;1645179;86;21033;-64
2023/05/19 02:27:40;;;;;;;11.00;5.65;;;;;;;19.69;52.58;100781.69;1645169;86;21515;-64
2023/05/19 02:30:10;;;;;;;10.48;5.17;;;;;;;19.66;52.84;100781.64;1645271;86;21092;-65
2023/05/19 02:32:39;;;;;;;8.15;5.33;;;;;;;19.65;53.25;100784.12;1645226;87;21132;-63
2023/05/19 02:35:09;;;;;;;11.38;5.22;;;;;;;19.64;53.09;100786.60;1645149;87;21510;-64
2023/05/19 02:37:39;;;;;;;9.63;5.35;;;;;;;19.65;53.01;100791.61;1645096;87;21017;-64
2023/05/19 02:40:10;;;;;;;7.80;4.92;;;;;;;19.64;52.89;100789.38;1645163;87;21105;-64
2023/05/19 02:42:39;;;;;;;8.15;5.37;;;;;;;19.64;52.98;100789.38;1644730;87;21062;-65
2023/05/19 02:45:09;;;;;;;10.58;4.95;;;;;;;19.64;52.89;100794.94;1645613;86;21473;-64
2023/05/19 02:47:37;;;;;;;8.00;5.00;;;;;;;19.64;52.84;100800.50;1645171;86;21482;-64
2023/05/19 02:50:09;;;;;;;8.75;5.50;;;;;;;19.63;52.83;100801.59;1645310;87;21013;-65
2023/05/19 02:52:38;;;;;;;8.45;4.75;;;;;;;19.63;52.96;100798.27;1645040;87;21088;-66
2023/05/19 02:55:08;;;;;;;7.00;4.83;;;;;;;19.64;53.04;100793.55;1645200;87;21017;-65
2023/05/19 02:57:36;;;;;;;10.15;4.95;;;;;;;19.63;52.94;100796.03;1645402;87;21064;-64
2023/05/19 03:00:07;;;;;;;7.58;4.67;;;;;;;19.62;52.96;100802.69;1645222;87;21037;-63
2023/05/19 03:02:38;;;;;;;11.43;4.65;;;;;;;19.62;52.98;100805.47;1645327;86;21084;-62
2023/05/19 03:05:09;;;;;;;7.65;4.72;;;;;;;19.62;52.96;100802.69;1645474;87;21025;-63
2023/05/19 03:07:39;;;;;;;10.25;4.72;;;;;;;19.65;52.98;100804.13;1645391;86;21053;-65
2023/05/19 03:10:08;;;;;;;8.95;5.03;;;;;;;19.67;53.03;100806.11;1645146;87;20993;-63
2023/05/19 03:12:37;;;;;;;9.33;4.97;;;;;;;19.66;53.17;100805.27;1645449;86;21088;-65
2023/05/19 03:15:07;;;;;;;10.48;5.00;;;;;;;19.63;53.28;100809.39;1645370;87;21013;-63
2023/05/19 03:17:36;;;;;;;9.28;4.55;;;;;;;19.65;53.52;100810.53;1644834;87;21129;-64
2023/05/19 03:20:07;;;;;;;9.43;4.65;;;;;;;19.65;53.61;100820.27;1645228;87;21009;-63
2023/05/19 03:22:36;;;;;;;9.13;4.50;;;;;;;19.65;53.71;100829.99;1644838;87;21056;-64
2023/05/19 03:25:06;;;;;;;9.78;4.47;;;;;;;19.65;53.75;100831.38;1547058;92;21582;-63
2023/05/19 03:27:35;;;;;;;6.72;4.58;;;;;;;19.66;53.77;100828.91;1574645;90;21551;-65
2023/05/19 03:30:06;;;;;;;6.80;4.62;;;;;;;19.66;54.03;100824.73;1547229;93;21102;-62
2023/05/19 03:32:38;;;;;;;6.25;4.25;;;;;;;19.65;54.69;100825.82;1574599;91;21115;-63
2023/05/19 03:35:09;;;;;;;6.08;4.08;;;;;;;19.66;54.95;100817.78;1554961;91;21067;-63
2023/05/19 03:37:39;;;;;;;9.20;4.30;;;;;;;19.62;54.33;100811.03;1574618;91;21079;-63
2023/05/19 03:40:10;;;;;;;9.93;4.53;;;;;;;19.60;54.28;100814.60;1574757;91;21071;-63
2023/05/19 03:42:39;;;;;;;10.10;4.95;;;;;;;19.58;54.09;100807.05;1601093;85;21559;-63
2023/05/19 03:45:09;;;;;;;11.50;4.10;;;;;;;19.58;53.87;100819.56;1677650;85;21060;-65
2023/05/19 03:47:39;;;;;;;5.30;4.17;;;;;;;19.60;53.74;100825.72;1626626;87;21033;-63
2023/05/19 03:50:10;;;;;;;7.92;4.20;;;;;;;19.64;53.69;100838.03;1644540;85;21021;-65
2023/05/19 03:52:46;;;;;;;6.80;4.20;;;;;;;19.67;53.94;100831.98;1646314;87;21045;-64
2023/05/19 03:55:28;;;;;;;8.68;4.30;;;;;;;19.67;53.90;100836.70;1647010;86;21009;-66
2023/05/19 03:57:57;;;;;;;6.37;3.75;;;;;;;19.68;54.04;100832.28;1646915;87;21425;-64
2023/05/19 04:00:26;;;;;;;8.88;4.20;;;;;;;19.69;53.99;100832.58;1646776;87;21064;-64
2023/05/19 04:02:55;;;;;;;7.58;4.25;;;;;;;19.70;53.96;100836.20;1646835;86;20985;-64
2023/05/19 04:05:26;;;;;;;8.13;3.92;;;;;;;19.70;53.94;100832.88;1647106;87;21040;-64
2023/05/19 04:08:17;;;;;;;7.40;4.30;;;;;;;19.72;54.01;100838.19;1646661;87;21061;-63
2023/05/19 04:10:45;;;;;;;10.53;4.25;;;;;;;19.74;53.98;100832.68;1673850;84;21036;-63
2023/05/19 04:13:15;;;;;;;10.15;4.40;;;;;;;19.77;54.00;100834.97;1668670;85;21008;-63
2023/05/19 04:15:45;;;;;;;7.45;4.15;;;;;;;19.80;53.91;100837.80;1713198;84;21078;-64
2023/05/19 04:18:16;;;;;;;7.22;4.05;;;;;;;19.82;53.82;100834.22;1716493;83;21050;-64
2023/05/19 04:20:44;;;;;;;7.15;4.30;;;;;;;19.82;53.92;100835.06;1712705;84;21225;-65
2023/05/19 04:23:13;;;;;;;8.28;4.37;;;;;;;19.81;54.11;100833.92;1713290;84;21019;-64
2023/05/19 04:25:42;;;;;;;8.28;4.50;;;;;;;19.81;54.58;100843.66;1713041;84;21035;-63
2023/05/19 04:28:11;;;;;;;12.47;5.40;;;;;;;19.79;54.69;100846.69;1712948;84;21031;-64
2023/05/19 04:30:41;;;;;;;8.58;4.40;;;;;;;19.79;54.89;100852.24;1712918;84;21086;-64
2023/05/19 04:33:10;;;;;;;10.48;4.58;;;;;;;19.80;54.65;100855.33;1713004;84;21035;-63
2023/05/19 04:35:40;;;;;;;8.60;4.70;;;;;;;19.81;54.64;100865.36;1713131;84;21054;-67
2023/05/19 04:38:11;;;;;;;8.68;4.40;;;;;;;19.82;54.75;100864.27;1687024;84;21074;-64
2023/05/19 04:40:42;;;;;;;6.30;4.05;;;;;;;19.81;54.82;100861.19;1713076;84;21043;-63
2023/05/19 04:43:11;;;;;;;7.12;4.20;;;;;;;19.81;54.79;100859.80;1712867;83;21462;-64
2023/05/19 04:45:41;;;;;;;12.05;4.50;;;;;;;19.78;54.87;100863.07;1686555;84;21083;-64
2023/05/19 04:48:12;;;;;;;8.10;4.78;;;;;;;19.73;55.02;100871.31;1712911;84;21035;-64
2023/05/19 04:50:41;;;;;;;6.72;4.50;;;;;;;19.71;55.16;100874.03;1713157;84;21046;-64
2023/05/19 04:53:10;;;;;;;12.90;5.10;;;;;;;19.71;55.30;100879.05;1713074;84;21043;-65
2023/05/19 04:55:40;;;;;;;13.25;4.90;;;;;;;19.72;55.56;100874.34;1713141;82;21169;-64
2023/05/19 04:58:10;;;;;;;7.97;4.85;;;;;;;19.70;55.86;100875.97;1712934;84;21114;-64
2023/05/19 05:00:39;;;;;;;10.53;4.62;;;;;;;19.70;56.11;100880.14;1686390;84;21178;-64
2023/05/19 05:03:13;;;;;;;18.40;5.58;;;;;;;19.69;56.19;100879.00;1712991;84;21086;-63
2023/05/19 05:05:42;;;;;;;18.62;9.23;;;;;;;19.67;56.50;100884.80;1712917;84;21521;-66
2023/05/19 05:08:11;;;;;;;10.95;5.28;;;;;;;19.63;56.75;100886.39;1686592;84;21030;-64
2023/05/19 05:10:42;;;;;;;16.77;6.20;;;;;;;19.61;56.97;100877.45;1734142;82;21007;-64
2023/05/19 05:13:14;;;;;;;12.28;5.08;;;;;;;19.61;57.15;100887.18;1736199;82;21035;-63
2023/05/19 05:15:44;;;;;;;9.90;4.75;;;;;;;19.61;57.33;100887.18;1736264;83;21458;-65
2023/05/19 05:18:15;;;;;;;8.70;5.15;;;;;;;19.60;57.46;100884.09;1736248;82;21006;-64
2023/05/19 05:20:45;;;;;;;6.47;4.40;;;;;;;19.61;57.46;100891.35;1736044;82;20967;-66
2023/05/19 05:23:16;;;;;;;8.13;4.55;;;;;;;19.61;57.51;100891.35;1736005;83;21089;-64
2023/05/19 05:25:47;;;;;;;10.53;4.50;;;;;;;19.61;57.61;100885.79;1737997;82;21007;-64
2023/05/19 05:28:19;;;;;;;9.05;4.40;;;;;;;19.60;57.52;100891.05;1735960;83;21465;-70
2023/05/19 05:30:50;;;;;;;10.75;4.70;;;;;;;19.61;57.34;100901.08;1736092;82;21070;-64
2023/05/19 05:33:20;;;;;;;6.30;4.15;;;;;;;19.61;57.24;100901.08;1736185;83;21066;-64
2023/05/19 05:35:50;;;;;;;9.68;4.45;;;;;;;19.62;56.92;100897.21;1736135;82;20995;-64
2023/05/19 05:38:20;;;;;;;10.10;4.87;;;;;;;19.65;56.72;100898.11;1736028;82;21407;-63
2023/05/19 05:40:50;;;;;;;10.08;5.03;;;;;;;19.67;56.50;100906.20;1735955;83;21006;-64
2023/05/19 05:43:18;;;;;;;8.55;4.83;;;;;;;19.68;56.43;100914.84;1736088;83;21003;-63
2023/05/19 05:45:56;;;;;;;10.48;5.08;;;;;;;19.71;56.11;100911.58;1735697;82;20995;-64
2023/05/19 05:48:26;;;;;;;13.95;5.30;;;;;;;19.74;56.15;100911.93;1736010;83;20963;-64
2023/05/19 05:50:56;;;;;;;7.95;4.25;;;;;;;19.76;56.05;100919.48;1735997;83;21059;-64
2023/05/19 05:53:29;;;;;;;8.23;4.53;;;;;;;19.78;55.87;100921.47;1736317;83;21007;-64
2023/05/19 05:56:00;;;;;;;17.40;5.25;;;;;;;19.82;55.72;100919.89;1736317;82;21015;-63
2023/05/19 05:58:35;;;;;;;9.55;5.03;;;;;;;19.85;55.61;100924.95;1716539;83;21011;-65
2023/05/19 06:01:09;;;;;;;10.40;5.28;;;;;;;19.86;55.60;100925.25;1736015;83;20967;-65
2023/05/19 06:03:39;;;;;;;8.63;5.00;;;;;;;19.88;55.48;100933.35;1736174;82;21014;-64
2023/05/19 06:06:10;;;;;;;9.25;5.00;;;;;;;19.88;55.54;100930.57;1736068;83;21046;-63
2023/05/19 06:08:40;;;;;;;10.10;5.62;;;;;;;19.88;55.53;100931.96;1735976;83;21069;-63
2023/05/19 06:11:09;;;;;;;8.30;4.90;;;;;;;19.87;55.51;100928.87;1729165;82;21071;-64
2023/05/19 06:13:42;;;;;;;12.47;5.28;;;;;;;19.87;55.45;100936.67;1728617;82;21113;-64
2023/05/19 06:16:13;;;;;;;11.00;4.72;;;;;;;19.89;55.57;100935.89;1728104;83;21046;-66
2023/05/19 06:18:45;;;;;;;9.78;5.10;;;;;;;19.91;55.56;100935.09;1728653;83;21077;-64
2023/05/19 06:21:14;;;;;;;6.50;4.47;;;;;;;19.93;55.57;100937.09;1728564;83;21101;-65
2023/05/19 06:23:43;;;;;;;20.25;5.70;;;;;;;19.98;55.56;100945.23;1728427;82;21028;-64
2023/05/19 06:26:12;;;;;;;13.40;5.12;;;;;;;20.00;55.55;100947.22;1728570;82;21082;-64
2023/05/19 06:28:42;;;;;;;12.85;5.65;;;;;;;20.00;55.40;100945.29;1728381;81;21101;-65
2023/05/19 06:31:11;;;;;;;9.20;4.90;;;;;;;20.01;55.49;100948.37;1728739;83;21010;-65
2023/05/19 06:33:45;;;;;;;8.35;5.17;;;;;;;20.01;55.40;100941.95;1727531;80;21007;-66
2023/05/19 06:36:14;;;;;;;15.03;5.95;;;;;;;20.04;55.45;100947.03;1728412;83;21540;-65
2023/05/19 06:38:45;;;;;;;8.10;4.75;;;;;;;20.06;55.43;100945.69;1728709;82;21002;-64
2023/05/19 06:41:14;;;;;;;9.08;5.05;;;;;;;20.08;55.31;100941.27;1728610;82;21058;-65
2023/05/19 06:43:43;;;;;;;10.05;5.15;;;;;;;20.11;55.16;100943.56;1728715;83;21046;-64
2023/05/19 06:46:16;;;;;;;13.83;5.87;;;;;;;20.11;55.04;100941.63;1727348;83;21086;-64
2023/05/19 06:48:47;;;;;;;9.13;5.20;;;;;;;20.14;54.91;100948.08;1728430;83;21026;-64
2023/05/19 06:51:20;;;;;;;8.83;4.90;;;;;;;20.15;54.70;100941.97;1707747;83;21122;-64
2023/05/19 06:53:48;;;;;;;9.03;4.78;;;;;;;20.14;54.55;100946.69;1728419;83;21038;-64
2023/05/19 06:56:18;;;;;;;8.10;4.70;;;;;;;20.15;54.53;100948.92;1707549;83;21090;-66
2023/05/19 06:58:47;;;;;;;7.33;4.70;;;;;;;20.19;54.30;100945.43;1727945;83;21040;-64
2023/05/19 07:01:15;;;;;;;16.95;5.78;;;;;;;20.22;54.24;100945.48;1728837;83;21089;-64
2023/05/19 07:03:46;;;;;;;8.48;4.67;;;;;;;20.24;54.19;100945.53;1728809;82;21086;-65
2023/05/19 07:06:16;;;;;;;7.72;4.87;;;;;;;20.29;53.99;100946.18;1728518;82;21050;-64
2023/05/19 07:08:46;;;;;;;9.43;5.33;;;;;;;20.34;53.81;100946.28;1728653;83;21014;-65
2023/05/19 07:11:16;;;;;;;11.38;5.40;;;;;;;20.38;53.61;100947.47;1735422;82;20998;-67
2023/05/19 07:13:46;;;;;;;11.50;5.45;;;;;;;20.44;53.37;100941.48;1736122;82;21512;-65
2023/05/19 07:16:16;;;;;;;6.65;4.62;;;;;;;20.51;53.33;100953.30;1735895;82;21038;-64
2023/05/19 07:18:46;;;;;;;14.68;5.47;;;;;;;20.57;52.91;100951.76;1736376;83;21034;-65
2023/05/19 07:21:15;;;;;;;7.25;5.37;;;;;;;20.64;52.69;100952.14;1735981;83;21029;-65
2023/05/19 07:23:45;;;;;;;10.85;5.40;;;;;;;20.72;52.76;100954.52;1718072;83;20983;-66
2023/05/19 07:26:14;;;;;;;11.05;5.40;;;;;;;20.83;52.48;100957.81;1735965;82;21027;-64
2023/05/19 07:28:43;;;;;;;9.83;5.47;;;;;;;20.94;52.48;100952.72;1741719;82;21415;-65
2023/05/19 07:31:12;;;;;;;7.53;5.30;;;;;;;21.08;52.24;100954.06;1736210;83;20983;-64
2023/05/19 07:33:41;;;;;;;9.70;5.58;;;;;;;21.24;52.02;100957.12;1736065;83;21042;-65
2023/05/19 07:36:12;;;;;;;9.70;5.95;;;;;;;21.37;51.62;100954.83;1736230;83;21466;-65
2023/05/19 07:38:41;;;;;;;14.00;6.40;;;;;;;21.53;51.18;100958.72;1736139;82;21027;-65
2023/05/19 07:41:10;;;;;;;10.58;5.95;;;;;;;21.68;50.87;100953.36;1736096;83;21002;-66
2023/05/19 07:43:40;;;;;;;9.95;5.83;;;;;;;21.85;50.66;100963.06;1735973;83;20998;-63
2023/05/19 07:46:09;;;;;;;12.23;5.87;;;;;;;21.99;49.92;100966.31;1736014;83;21003;-64
2023/05/19 07:48:39;;;;;;;10.00;5.62;;;;;;;22.06;50.12;100954.44;1735859;83;21193;-64
2023/05/19 07:51:09;;;;;;;10.05;5.45;;;;;;;22.13;50.13;100954.56;1701912;82;21023;-67
2023/05/19 07:53:41;;;;;;;19.20;8.08;;;;;;;22.21;50.19;100951.02;1732912;81;20990;-64
2023/05/19 07:56:10;;;;;;;13.48;6.62;;;;;;;22.27;50.17;100952.77;1761182;80;21019;-64
2023/05/19 07:58:42;;;;;;;10.78;5.78;;;;;;;22.37;50.29;100948.13;1720879;83;21026;-65
2023/05/19 08:01:12;;;;;;;9.45;6.25;;;;;;;22.50;50.06;100945.47;1718999;83;21023;-67
2023/05/19 08:03:41;;;;;;;8.45;5.33;;;;;;;22.62;49.60;100953.14;1710276;84;21039;-68
2023/05/19 08:06:11;;;;;;;8.05;5.55;;;;;;;22.83;49.30;100951.45;1710337;84;21979;-66
2023/05/19 08:08:43;;;;;;;14.10;5.50;;;;;;;23.14;48.61;100944.71;1710565;84;21011;-66
2023/05/19 08:11:15;;;;;;;10.98;6.37;;;;;;;23.48;47.77;100942.46;1760209;81;21508;-67
2023/05/19 08:13:50;;;;;;;8.68;5.08;;;;;;;23.83;47.14;100957.24;1760570;81;21043;-68
2023/05/19 08:16:20;;;;;;;7.58;4.78;;;;;;;24.14;45.36;100942.84;1737210;81;21476;-67
2023/05/19 08:18:49;;;;;;;7.70;5.35;;;;;;;24.49;45.05;100956.14;1716548;83;21073;-70
2023/05/19 08:21:18;;;;;;;10.55;5.78;;;;;;;24.89;44.66;100953.98;1716870;83;21034;-68
2023/05/19 08:23:47;;;;;;;12.88;5.50;;;;;;;25.29;43.31;100960.18;1717125;83;21042;-68
2023/05/19 08:26:17;;;;;;;10.32;6.10;;;;;;;25.66;42.08;100943.05;1716601;83;21182;-69
2023/05/19 08:28:46;;;;;;;9.08;5.15;;;;;;;26.06;41.14;100953.89;1715104;83;21075;-68
2023/05/19 08:31:17;;;;;;;13.83;6.30;;;;;;;26.21;40.09;100956.63;1715030;84;21027;-68
2023/05/19 08:33:46;;;;;;;8.85;5.70;;;;;;;26.07;39.98;100949.39;1683120;85;21031;-67
2023/05/19 08:36:15;;;;;;;9.40;5.60;;;;;;;25.93;40.64;100959.53;1713200;83;21514;-67
2023/05/19 08:38:44;;;;;;;9.65;5.47;;;;;;;25.86;40.32;100955.63;1712822;82;21078;-69
2023/05/19 08:41:15;;;;;;;10.18;5.37;;;;;;;25.76;40.30;100961.83;1712905;83;21055;-69
2023/05/19 08:43:45;;;;;;;6.10;5.20;;;;;;;25.70;39.60;100965.78;1712865;84;21078;-69
2023/05/19 08:46:15;;;;;;;9.00;5.20;;;;;;;25.55;39.90;100954.84;1712775;82;21090;-66
2023/05/19 08:48:44;;;;;;;7.25;5.10;;;;;;;25.45;40.09;100958.23;1712942;84;21470;-67
2023/05/19 08:51:24;;;;;;;10.25;5.40;;;;;;;25.40;40.31;100954.87;1712813;84;21525;-69
2023/05/19 08:53:54;;;;;;;13.65;5.80;;;;;;;25.44;40.91;100961.59;1712764;84;21475;-70
2023/05/19 08:56:24;;;;;;;10.38;5.28;;;;;;;25.44;41.30;100960.19;1716403;83;21106;-69
2023/05/19 08:58:53;;;;;;;9.20;6.08;;;;;;;25.31;41.36;100959.33;1712835;84;21062;-68
2023/05/19 09:01:22;;;;;;;11.90;6.45;;;;;;;25.22;41.62;100975.05;1703539;84;21445;-68
2023/05/19 09:03:51;;;;;;;7.75;5.25;;;;;;;25.10;42.07;100959.91;1695352;84;21510;-71
2023/05/19 09:06:20;;;;;;;10.78;6.60;;;;;;;25.00;42.05;100971.69;1695759;84;21036;-67
2023/05/19 09:08:50;;;;;;;8.08;5.83;;;;;;;24.86;42.42;100966.60;1695522;84;21243;-69
2023/05/19 09:11:21;;;;;;;9.88;5.72;;;;;;;24.68;42.83;100953.09;1646123;86;21056;-69
2023/05/19 09:13:50;;;;;;;12.05;6.65;;;;;;;24.60;42.81;100967.66;1696357;84;21049;-70
2023/05/19 09:16:21;;;;;;;11.78;6.65;;;;;;;24.49;42.94;100972.39;1685403;84;20985;-70
2023/05/19 09:18:56;;;;;;;14.40;6.53;;;;;;;24.39;43.21;100964.52;1685358;84;21085;-69
2023/05/19 09:21:31;;;;;;;12.63;6.30;;;;;;;24.32;43.30;100962.83;1685287;84;21173;-67
2023/05/19 09:24:09;;;;;;;16.30;7.55;;;;;;;24.20;43.41;100964.99;1685271;85;21057;-70
2023/05/19 09:26:39;;;;;;;13.05;6.45;;;;;;;24.15;42.87;100961.33;1684894;84;21119;-69
2023/05/19 09:29:16;;;;;;;11.85;6.62;;;;;;;24.15;42.66;100969.73;1685469;85;21136;-71
2023/05/19 09:31:50;;;;;;;12.33;6.67;;;;;;;24.13;42.94;100959.37;1685907;84;21050;-69
2023/05/19 09:34:20;;;;;;;12.95;6.60;;;;;;;24.14;42.55;100963.84;1685460;84;21025;-70
2023/05/19 09:36:51;;;;;;;8.85;6.12;;;;;;;24.15;42.05;100959.93;1685318;84;21800;-69
2023/05/19 09:39:24;;;;;;;8.93;6.28;;;;;;;24.19;41.65;100961.91;1685292;84;21061;-70
2023/05/19 09:41:54;;;;;;;10.00;7.00;;;;;;;24.26;41.88;100952.69;1685366;85;21120;-72
2023/05/19 09:44:32;;;;;;;10.98;7.08;;;;;;;24.27;42.18;100964.77;1685390;84;21085;-71
2023/05/19 09:46:58;;;;;;;10.45;7.22;;;;;;;24.21;42.25;100961.64;1685075;84;21026;-71
2023/05/19 09:49:29;;;;;;;8.98;6.33;;;;;;;24.16;42.44;100964.42;1685238;85;21105;-71
2023/05/19 09:51:59;;;;;;;9.95;6.60;;;;;;;24.12;42.36;100966.08;1685212;84;21581;-73
2023/05/19 09:54:28;;;;;;;14.35;7.08;;;;;;;24.09;41.84;100964.67;1685369;84;21792;-70
2023/05/19 09:57:02;;;;;;;10.63;6.12;;;;;;;24.03;41.71;100972.17;1685266;85;21080;-71
2023/05/19 09:59:31;;;;;;;10.05;5.85;;;;;;;24.02;41.11;100967.69;1685421;84;21065;-71
2023/05/19 10:02:01;;;;;;;11.60;6.15;;;;;;;24.01;41.44;100963.77;1697901;84;21054;-71
2023/05/19 10:04:31;;;;;;;13.43;6.40;;;;;;;24.10;41.00;100963.55;1701071;84;21520;-67
2023/05/19 10:07:04;;;;;;;12.43;6.58;;;;;;;24.13;41.06;100961.61;1700955;84;21335;-70
2023/05/19 10:09:32;;;;;;;12.28;6.40;;;;;;;24.13;40.88;100957.41;1701011;84;21450;-70
2023/05/19 10:12:01;;;;;;;10.32;6.37;;;;;;;24.10;41.07;100956.55;1711824;83;21057;-71
2023/05/19 10:14:30;;;;;;;10.55;7.03;;;;;;;24.15;41.19;100944.53;1713921;84;21044;-71
2023/05/19 10:16:59;;;;;;;11.43;6.90;;;;;;;24.17;41.51;100952.94;1713724;82;21092;-70
2023/05/19 10:19:29;;;;;;;12.45;7.42;;;;;;;24.19;42.05;100952.11;1713869;84;21563;-68
2023/05/19 10:21:59;;;;;;;11.63;6.03;;;;;;;24.19;42.35;100955.47;1713791;82;21088;-66
2023/05/19 10:24:28;;;;;;;14.18;7.40;;;;;;;24.18;43.04;100951.83;1713961;84;21096;-68
2023/05/19 10:27:04;;;;;;;13.95;8.05;;;;;;;24.13;42.79;100957.97;1714092;84;21292;-67
2023/05/19 10:29:36;;;;;;;12.65;6.62;;;;;;;24.11;42.35;100952.64;1717140;83;21096;-70
2023/05/19 10:32:11;;;;;;;12.18;6.60;;;;;;;24.12;42.33;100955.72;1713939;83;21053;-70
2023/05/19 10:35:23;;;;;;;13.83;6.75;;;;;;;24.05;42.30;100950.91;1713806;83;21069;-69
2023/05/19 10:38:33;;;;;;;9.43;5.37;;;;;;;24.04;42.53;100943.62;1713787;82;21068;-70
2023/05/19 10:41:25;;;;;;;9.98;5.60;;;;;;;23.95;41.81;100947.50;1713868;84;21034;-70
2023/05/19 10:44:11;;;;;;;12.43;6.62;;;;;;;23.97;42.16;100951.43;1713845;82;21434;-71
2023/05/19 10:46:41;;;;;;;8.40;5.37;;;;;;;23.98;42.33;100946.11;1714147;84;21187;-74
2023/05/19 10:49:10;;;;;;;8.98;4.70;;;;;;;23.99;42.17;100950.59;1713806;82;21089;-73
2023/05/19 10:51:39;;;;;;;12.85;5.17;;;;;;;23.97;41.80;100944.43;1671239;84;21042;-73
2023/05/19 10:54:08;;;;;;;9.05;4.95;;;;;;;23.94;41.71;100945.82;1713900;82;21108;-71
2023/05/19 10:56:41;;;;;;;9.13;5.87;;;;;;;23.92;41.91;100945.81;1717318;82;21006;-72
2023/05/19 10:59:31;;;;;;;9.60;5.12;;;;;;;23.86;42.38;100941.30;1713577;84;21546;-74
2023/05/19 11:02:04;;;;;;;7.28;5.22;;;;;;;23.86;42.60;100937.11;1704709;83;21461;-72
2023/05/19 11:04:57;;;;;;;9.20;5.80;;;;;;;23.87;43.26;100941.59;1702267;84;21017;-74
2023/05/19 11:07:21;;;;;;;11.18;6.28;;;;;;;23.87;43.54;100942.98;1701412;83;21041;-72
2023/05/19 11:09:51;;;;;;;7.42;5.42;;;;;;;23.92;43.88;100936.02;1702220;83;21081;-72
2023/05/19 11:12:24;;;;;;;12.35;6.40;;;;;;;23.89;43.90;100940.20;1630650;88;21048;-73
2023/05/19 11:14:54;;;;;;;13.70;6.70;;;;;;;23.85;44.13;100946.61;1631021;88;21124;-72
2023/05/19 11:17:26;;;;;;;10.05;5.95;;;;;;;23.88;44.12;100953.07;1630975;88;21107;-72
2023/05/19 11:19:56;;;;;;;9.55;5.85;;;;;;;23.88;44.14;100953.91;1630996;88;22064;-71
2023/05/19 11:22:26;;;;;;;10.40;5.80;;;;;;;23.87;44.39;100961.18;1630993;88;21056;-73
2023/05/19 11:24:55;;;;;;;11.22;6.40;;;;;;;23.81;45.41;100961.71;1631207;88;21267;-72
2023/05/19 11:27:32;;;;;;;9.68;6.45;;;;;;;23.76;45.89;100963.64;1630771;88;21085;-71
2023/05/19 11:30:13;;;;;;;13.03;7.15;;;;;;;23.70;46.35;100962.22;1653522;83;21435;-75
2023/05/19 11:32:48;;;;;;;13.48;6.80;;;;;;;23.69;46.56;100961.93;1707327;84;21023;-72
2023/05/19 11:35:17;;;;;;;9.60;6.33;;;;;;;23.68;46.83;100967.23;1590349;88;21162;-71
2023/05/19 11:37:46;;;;;;;9.95;6.65;;;;;;;23.63;47.06;100967.21;1631001;88;21096;-72
2023/05/19 11:40:16;;;;;;;10.60;7.45;;;;;;;23.60;47.14;100969.15;1630899;88;21076;-72
2023/05/19 11:42:45;;;;;;;9.03;6.03;;;;;;;23.53;47.74;100961.52;1631074;88;21225;-75